createdAt,value
2022-10-05T00:00:48.851Z,3.22
2022-10-05T00:03:15.675Z,3.00
2022-10-05T00:05:45.345Z,2.80
2022-10-05T00:08:17.774Z,2.90
2022-10-05T00:10:46.071Z,2.83
2022-10-05T00:13:21.606Z,3.13
2022-10-05T00:15:50.042Z,2.70
2022-10-05T00:18:19.355Z,3.50
2022-10-05T00:20:47.770Z,3.65
2022-10-05T00:23:19.863Z,3.07
2022-10-05T00:25:46.913Z,3.20
2022-10-05T00:28:29.554Z,3.13
2022-10-05T00:30:58.087Z,2.90
2022-10-05T00:33:25.847Z,3.95
2022-10-05T00:35:52.836Z,3.20
2022-10-05T00:38:19.593Z,3.30
2022-10-05T00:40:59.115Z,3.20
2022-10-05T00:43:40.862Z,3.50
2022-10-05T00:46:30.744Z,3.58
2022-10-05T00:49:42.488Z,3.30
2022-10-05T00:52:22.609Z,3.50
2022-10-05T00:55:12.501Z,3.50
2022-10-05T00:58:08.506Z,3.60
2022-10-05T01:00:46.990Z,3.35
2022-10-05T01:03:43.055Z,3.40
2022-10-05T01:06:39.518Z,3.17
2022-10-05T01:09:09.185Z,3.40
2022-10-05T01:11:43.838Z,3.75
2022-10-05T01:14:43.855Z,3.65
2022-10-05T01:17:24.380Z,3.67
2022-10-05T01:20:06.484Z,3.70
2022-10-05T01:22:33.337Z,4.10
2022-10-05T01:25:51.283Z,3.90
2022-10-05T01:28:28.264Z,3.90
2022-10-05T01:31:09.696Z,3.63
2022-10-05T01:34:11.574Z,3.60
2022-10-05T01:36:52.577Z,3.60
2022-10-05T01:39:46.974Z,3.30
2022-10-05T01:42:22.085Z,3.70
2022-10-05T01:44:53.589Z,3.63
2022-10-05T01:47:44.066Z,3.90
2022-10-05T01:50:23.705Z,3.72
2022-10-05T01:52:53.458Z,3.45
2022-10-05T01:55:26.088Z,3.60
2022-10-05T01:58:23.529Z,4.00
2022-10-05T02:01:03.426Z,3.63
2022-10-05T02:03:49.705Z,3.47
2022-10-05T02:06:41.944Z,3.70
2022-10-05T02:09:17.565Z,3.60
2022-10-05T02:11:50.286Z,3.70
2022-10-05T02:14:23.870Z,3.60
2022-10-05T02:16:53.922Z,3.65
2022-10-05T02:19:35.560Z,3.92
2022-10-05T02:22:08.678Z,3.80
2022-10-05T02:24:40.750Z,4.20
2022-10-05T02:27:10.947Z,3.75
2022-10-05T02:29:42.931Z,3.88
2022-10-05T02:32:27.408Z,3.80
2022-10-05T02:35:01.720Z,3.88
2022-10-05T02:37:40.716Z,4.00
2022-10-05T02:40:39.804Z,4.00
2022-10-05T02:43:32.717Z,4.40
2022-10-05T02:46:02.565Z,4.30
2022-10-05T02:48:56.808Z,4.30
2022-10-05T02:51:28.613Z,4.67
2022-10-05T02:53:58.132Z,4.43
2022-10-05T02:56:49.545Z,4.80
2022-10-05T02:59:34.438Z,4.38
2022-10-05T03:02:07.287Z,4.50
2022-10-05T03:04:46.840Z,4.40
2022-10-05T03:07:15.847Z,4.50
2022-10-05T03:09:51.032Z,4.50
2022-10-05T03:12:49.303Z,4.82
2022-10-05T03:15:18.802Z,4.47
2022-10-05T03:18:03.821Z,4.57
2022-10-05T03:20:55.178Z,4.40
2022-10-05T03:23:53.244Z,4.75
2022-10-05T03:26:48.882Z,4.28
2022-10-05T03:29:23.508Z,4.72
2022-10-05T03:32:32.528Z,4.10
2022-10-05T03:35:27.928Z,4.00
2022-10-05T03:38:20.863Z,3.80
2022-10-05T03:40:53.363Z,4.07
2022-10-05T03:43:25.884Z,3.80
2022-10-05T03:46:19.635Z,4.00
2022-10-05T03:49:04.598Z,4.15
2022-10-05T03:51:32.562Z,4.18
2022-10-05T03:54:35.298Z,4.50
2022-10-05T03:57:07.143Z,4.03
2022-10-05T04:00:12.500Z,4.10
2022-10-05T04:02:50.303Z,5.00
2022-10-05T04:05:25.098Z,5.13
2022-10-05T04:08:10.423Z,4.90
2022-10-05T04:10:46.318Z,4.05
2022-10-05T04:13:25.819Z,4.50
2022-10-05T04:16:14.585Z,4.85
2022-10-05T04:18:44.301Z,4.50
2022-10-05T04:21:23.770Z,4.80
2022-10-05T04:24:01.848Z,4.53
2022-10-05T04:26:45.848Z,4.60
2022-10-05T04:29:45.109Z,5.40
2022-10-05T04:32:37.257Z,5.60
2022-10-05T04:35:36.969Z,4.10
2022-10-05T04:38:26.560Z,4.78
2022-10-05T04:41:11.701Z,4.50
2022-10-05T04:44:01.402Z,4.35
2022-10-05T04:46:28.293Z,4.32
2022-10-05T04:49:07.113Z,4.40
2022-10-05T04:51:52.614Z,4.22
2022-10-05T04:54:40.051Z,4.07
2022-10-05T04:57:34.305Z,4.00
2022-10-05T05:00:26.292Z,3.90
2022-10-05T05:02:53.033Z,3.67
2022-10-05T05:06:15.782Z,3.97
2022-10-05T05:09:11.731Z,4.10
2022-10-05T05:12:21.772Z,4.20
2022-10-05T05:14:57.440Z,3.83
2022-10-05T05:17:36.289Z,3.88
2022-10-05T05:20:23.971Z,3.90
2022-10-05T05:22:59.147Z,3.97
2022-10-05T05:25:43.313Z,4.00
2022-10-05T05:28:30.605Z,3.92
2022-10-05T05:31:19.786Z,4.00
2022-10-05T05:34:28.281Z,3.88
2022-10-05T05:37:05.204Z,3.97
2022-10-05T05:39:49.909Z,3.97
2022-10-05T05:42:37.524Z,3.80
2022-10-05T05:45:23.797Z,4.00
2022-10-05T05:47:57.238Z,3.80
2022-10-05T05:50:55.612Z,4.00
2022-10-05T05:53:44.646Z,3.80
2022-10-05T05:56:12.816Z,4.18
2022-10-05T05:58:42.188Z,3.80
2022-10-05T06:01:44.183Z,3.95
2022-10-05T06:04:17.536Z,4.10
2022-10-05T06:06:50.258Z,3.60
2022-10-05T06:09:30.965Z,3.50
2022-10-05T06:12:19.242Z,3.70
2022-10-05T06:15:12.474Z,3.70
2022-10-05T06:17:52.997Z,3.37
2022-10-05T06:20:30.483Z,3.05
2022-10-05T06:23:03.460Z,3.42
2022-10-05T06:25:45.085Z,2.90
2022-10-05T06:28:14.227Z,3.45
2022-10-05T06:30:48.953Z,3.20
2022-10-05T06:33:47.899Z,2.92
2022-10-05T06:36:48.830Z,2.78
2022-10-05T06:39:15.973Z,3.30
2022-10-05T06:41:58.989Z,3.13
2022-10-05T06:44:49.259Z,2.50
2022-10-05T06:47:46.535Z,3.05
2022-10-05T06:50:13.274Z,2.65
2022-10-05T06:52:49.251Z,2.90
2022-10-05T06:55:21.740Z,2.70
2022-10-05T06:58:19.417Z,2.80
2022-10-05T07:01:03.210Z,2.40
2022-10-05T07:03:38.671Z,2.40
2022-10-05T07:06:14.329Z,2.33
2022-10-05T07:08:47.025Z,2.63
2022-10-05T07:11:40.396Z,2.27
2022-10-05T07:14:07.090Z,2.60
2022-10-05T07:16:42.869Z,2.60
2022-10-05T07:19:27.848Z,2.63
2022-10-05T07:22:30.500Z,2.80
2022-10-05T07:25:19.187Z,2.90
2022-10-05T07:28:00.644Z,2.80
2022-10-05T07:30:28.531Z,2.60
2022-10-05T07:33:44.531Z,2.97
2022-10-05T07:36:19.990Z,2.50
2022-10-05T07:39:01.629Z,2.80
2022-10-05T07:41:41.388Z,2.20
2022-10-05T07:44:26.751Z,2.40
2022-10-05T07:47:07.160Z,2.20
2022-10-05T07:49:51.490Z,2.08
2022-10-05T07:52:46.978Z,2.20
2022-10-05T07:55:19.572Z,2.40
2022-10-05T07:57:56.341Z,2.20
2022-10-05T08:00:26.610Z,3.10
2022-10-05T08:03:03.933Z,2.35
2022-10-05T08:05:37.340Z,2.40
2022-10-05T08:08:14.274Z,2.33
2022-10-05T08:10:54.873Z,2.03
2022-10-05T08:13:45.439Z,2.60
2022-10-05T08:16:13.054Z,2.58
2022-10-05T08:18:42.715Z,2.30
2022-10-05T08:21:10.114Z,2.20
2022-10-05T08:23:56.829Z,2.30
2022-10-05T08:26:45.501Z,2.10
2022-10-05T08:29:40.877Z,2.22
2022-10-05T08:32:24.996Z,2.20
2022-10-05T08:34:58.519Z,2.10
2022-10-05T08:37:29.814Z,2.17
2022-10-05T08:40:33.872Z,3.10
2022-10-05T08:43:06.483Z,2.42
2022-10-05T08:45:51.740Z,2.57
2022-10-05T08:48:52.280Z,2.30
2022-10-05T08:51:33.466Z,2.28
2022-10-05T08:54:03.148Z,3.42
2022-10-05T08:56:33.502Z,2.30
2022-10-05T08:59:26.349Z,2.53
2022-10-05T09:02:15.080Z,2.67
2022-10-05T09:04:47.934Z,2.30
2022-10-05T09:07:28.821Z,2.65
2022-10-05T09:10:37.762Z,2.38
2022-10-05T09:13:17.534Z,2.70
2022-10-05T09:16:04.701Z,2.30
2022-10-05T09:18:50.157Z,2.50
2022-10-05T09:21:39.431Z,2.53
2022-10-05T09:24:15.018Z,2.55
2022-10-05T09:26:59.243Z,2.67
2022-10-05T09:30:00.141Z,2.25
2022-10-05T09:32:52.777Z,3.03
2022-10-05T09:35:31.475Z,2.50
2022-10-05T09:38:07.241Z,2.20
2022-10-05T09:41:07.318Z,2.30
2022-10-05T09:43:55.349Z,2.75
2022-10-05T09:46:48.358Z,2.70
2022-10-05T09:49:49.164Z,2.35
2022-10-05T09:52:25.150Z,3.33
2022-10-05T09:55:13.071Z,4.00
2022-10-05T09:57:53.145Z,2.40
2022-10-05T10:00:38.465Z,2.55
2022-10-05T10:03:25.790Z,2.83
2022-10-05T10:06:25.157Z,2.63
2022-10-05T10:09:00.906Z,2.57
2022-10-05T10:11:44.529Z,2.60
2022-10-05T10:14:23.968Z,4.35
2022-10-05T10:16:58.506Z,4.18
2022-10-05T10:19:27.944Z,3.17
2022-10-05T10:22:06.437Z,2.90
2022-10-05T10:24:58.460Z,2.67
2022-10-05T10:28:08.524Z,2.40
2022-10-05T10:31:13.134Z,2.90
2022-10-05T10:33:58.189Z,2.40
2022-10-05T10:37:13.133Z,2.30
2022-10-05T10:40:04.005Z,2.50
2022-10-05T10:42:58.272Z,2.45
2022-10-05T10:45:47.884Z,2.60
2022-10-05T10:48:30.081Z,2.80
2022-10-05T10:51:08.771Z,2.50
2022-10-05T10:54:00.263Z,2.50
2022-10-05T10:57:02.933Z,5.32
2022-10-05T10:59:47.745Z,2.38
2022-10-05T11:02:32.988Z,2.33
2022-10-05T11:05:00.181Z,2.50
2022-10-05T11:07:35.941Z,2.80
2022-10-05T11:10:23.002Z,2.85
2022-10-05T11:13:35.521Z,2.88
2022-10-05T11:16:21.169Z,2.67
2022-10-05T11:19:13.725Z,2.40
2022-10-05T11:22:07.123Z,4.68
2022-10-05T11:24:43.990Z,2.80
2022-10-05T11:27:48.240Z,2.40
2022-10-05T11:30:30.243Z,2.92
2022-10-05T11:32:56.949Z,2.87
2022-10-05T11:35:49.757Z,2.80
2022-10-05T11:38:46.787Z,3.10
2022-10-05T11:41:34.370Z,2.80
2022-10-05T11:44:27.294Z,2.65
2022-10-05T11:47:17.991Z,2.50
2022-10-05T11:50:14.312Z,3.00
2022-10-05T11:52:48.245Z,2.78
2022-10-05T11:55:17.928Z,2.50
2022-10-05T11:57:56.068Z,2.33
2022-10-05T12:00:31.626Z,2.50
2022-10-05T12:03:22.468Z,2.60
2022-10-05T12:06:04.406Z,3.00
2022-10-05T12:08:54.110Z,2.50
2022-10-05T12:11:29.812Z,2.40
2022-10-05T12:14:33.245Z,2.50
2022-10-05T12:17:15.591Z,2.70
2022-10-05T12:19:48.241Z,2.65
2022-10-05T12:22:47.001Z,2.53
2022-10-05T12:25:25.510Z,2.40
2022-10-05T12:27:56.806Z,2.30
2022-10-05T12:30:52.404Z,2.40
2022-10-05T12:33:27.660Z,2.55
2022-10-05T12:36:01.547Z,2.60
2022-10-05T12:38:53.052Z,2.60
2022-10-05T12:41:25.538Z,2.67
2022-10-05T12:44:15.621Z,2.38
2022-10-05T12:46:59.574Z,2.30
2022-10-05T12:49:56.213Z,2.30
2022-10-05T12:52:32.996Z,2.25
2022-10-05T12:55:02.640Z,2.87
2022-10-05T12:57:41.332Z,2.92
2022-10-05T13:00:17.848Z,2.63
2022-10-05T13:03:02.057Z,2.58
2022-10-05T13:05:52.770Z,2.35
2022-10-05T13:08:39.775Z,2.70
2022-10-05T13:11:17.659Z,2.60
2022-10-05T13:14:18.521Z,2.50
2022-10-05T13:17:00.178Z,2.60
2022-10-05T13:19:41.514Z,2.70
2022-10-05T13:22:56.138Z,2.40
2022-10-05T13:25:31.360Z,3.38
2022-10-05T13:28:21.551Z,2.30
2022-10-05T13:31:21.953Z,2.80
2022-10-05T13:34:07.189Z,3.03
2022-10-05T13:36:52.019Z,3.07
2022-10-05T13:39:39.872Z,2.50
2022-10-05T13:42:17.989Z,2.45
2022-10-05T13:44:55.708Z,2.53
2022-10-05T13:47:42.199Z,3.00
2022-10-05T13:50:22.653Z,3.20
2022-10-05T13:53:22.266Z,2.90
2022-10-05T13:56:07.656Z,3.08
2022-10-05T13:58:51.601Z,2.65
2022-10-05T14:01:53.111Z,2.83
2022-10-05T14:04:44.535Z,3.73
2022-10-05T14:07:30.537Z,3.00
2022-10-05T14:09:58.960Z,2.40
2022-10-05T14:12:27.353Z,2.60
2022-10-05T14:14:56.904Z,2.65
2022-10-05T14:17:42.173Z,2.70
2022-10-05T14:20:21.447Z,2.80
2022-10-05T14:22:58.077Z,2.50
2022-10-05T14:25:25.368Z,2.70
2022-10-05T14:28:11.887Z,2.90
2022-10-05T14:30:38.905Z,2.73
2022-10-05T14:33:05.908Z,3.08
2022-10-05T14:35:52.363Z,2.80
2022-10-05T14:38:57.655Z,2.50
2022-10-05T14:41:27.834Z,2.80
2022-10-05T14:44:12.904Z,3.00
2022-10-05T14:46:53.156Z,3.00
2022-10-05T14:49:36.196Z,2.80
2022-10-05T15:32:14.250Z,2.90
2022-10-05T15:35:23.574Z,2.97
2022-10-05T15:38:04.864Z,2.80
2022-10-05T15:40:51.865Z,3.13
2022-10-05T15:43:23.020Z,3.00
2022-10-05T15:45:54.030Z,3.03
2022-10-05T15:48:43.804Z,3.03
2022-10-05T15:51:22.664Z,2.70
2022-10-05T15:53:55.237Z,2.90
2022-10-05T15:56:38.587Z,2.90
2022-10-05T15:59:07.983Z,2.65
2022-10-05T16:01:34.787Z,2.95
2022-10-05T16:04:12.381Z,2.90
2022-10-05T16:06:53.947Z,2.90
2022-10-05T16:09:38.794Z,3.07
2022-10-05T16:12:25.747Z,3.10
2022-10-05T16:15:14.619Z,3.33
2022-10-05T16:17:56.643Z,3.15
2022-10-05T16:20:25.540Z,2.90
2022-10-05T16:23:12.167Z,2.97
2022-10-05T16:26:03.641Z,3.22
2022-10-05T16:29:05.424Z,2.83
2022-10-05T16:31:34.984Z,3.00
2022-10-05T16:34:34.480Z,3.20
2022-10-05T16:37:11.527Z,3.03
2022-10-05T16:39:54.258Z,3.10
2022-10-05T16:42:42.420Z,3.25
2022-10-05T16:45:18.018Z,3.00
2022-10-05T16:48:31.197Z,3.13
2022-10-05T16:51:21.486Z,2.80
2022-10-05T16:54:03.447Z,2.97
2022-10-05T16:56:41.849Z,2.63
2022-10-05T16:59:47.423Z,3.05
2022-10-05T17:02:28.316Z,2.75
2022-10-05T17:04:58.313Z,2.80
2022-10-05T17:07:56.295Z,2.63
2022-10-05T17:10:35.409Z,2.55
2022-10-05T17:13:08.073Z,2.70
2022-10-05T17:15:57.959Z,2.40
2022-10-05T17:18:50.526Z,2.70
2022-10-05T17:21:30.679Z,2.70
2022-10-05T17:24:17.631Z,2.67
2022-10-05T17:26:57.620Z,2.45
2022-10-05T17:29:53.659Z,2.40
2022-10-05T17:32:23.144Z,2.57
2022-10-05T17:35:18.155Z,2.70
2022-10-05T17:38:12.712Z,2.25
2022-10-05T17:40:40.922Z,2.67
2022-10-05T17:43:25.385Z,2.47
2022-10-05T17:46:12.174Z,2.60
2022-10-05T17:48:54.200Z,2.50
2022-10-05T17:51:29.919Z,2.55
2022-10-05T17:53:56.794Z,2.58
2022-10-05T17:56:23.745Z,2.50
2022-10-05T17:58:50.506Z,2.40
2022-10-05T18:01:39.827Z,2.60
2022-10-05T18:04:15.501Z,2.60
2022-10-05T18:06:59.452Z,2.88
2022-10-05T18:09:26.163Z,2.60
2022-10-05T18:11:55.850Z,2.70
2022-10-05T18:14:25.884Z,2.55
2022-10-05T18:17:13.340Z,2.60
2022-10-05T18:19:40.305Z,2.65
2022-10-05T18:22:30.352Z,2.67
2022-10-05T18:25:03.351Z,2.57
2022-10-05T18:27:53.944Z,2.53
2022-10-05T18:30:25.632Z,2.90
2022-10-05T18:33:17.048Z,2.83
2022-10-05T18:35:53.069Z,2.55
2022-10-05T18:38:47.622Z,2.40
2022-10-05T18:41:55.156Z,2.80
2022-10-05T18:44:34.261Z,2.65
2022-10-05T18:47:10.027Z,2.60
2022-10-05T18:49:59.962Z,2.72
2022-10-05T18:53:00.612Z,2.60
2022-10-05T18:55:35.953Z,2.50
2022-10-05T18:58:26.676Z,2.90
2022-10-05T19:01:12.503Z,2.60
2022-10-05T19:04:11.908Z,2.50
2022-10-05T19:07:01.620Z,2.70
2022-10-05T19:09:43.154Z,2.42
2022-10-05T19:12:28.721Z,2.58
2022-10-05T19:15:20.438Z,2.50
2022-10-05T19:17:47.163Z,2.35
2022-10-05T19:20:30.463Z,2.60
2022-10-05T19:23:06.089Z,2.88
2022-10-05T19:25:37.555Z,2.30
2022-10-05T19:28:31.012Z,2.50
2022-10-05T19:31:15.570Z,2.42
2022-10-05T19:34:07.070Z,2.40
2022-10-05T19:36:41.514Z,2.50
2022-10-05T19:39:32.906Z,2.75
2022-10-05T19:42:16.353Z,2.60
2022-10-05T19:44:45.992Z,2.67
2022-10-05T19:47:26.134Z,2.70
2022-10-05T19:49:52.790Z,2.53
2022-10-05T19:52:28.907Z,2.55
2022-10-05T19:55:13.486Z,2.50
2022-10-05T19:57:52.197Z,2.60
2022-10-05T20:00:31.722Z,3.00
2022-10-05T20:03:15.311Z,2.63
2022-10-05T20:05:42.106Z,2.75
2022-10-05T20:08:18.181Z,2.80
2022-10-05T20:11:03.257Z,2.70
2022-10-05T20:13:30.556Z,2.80
2022-10-05T20:16:12.615Z,2.78
2022-10-05T20:18:45.162Z,2.92
2022-10-05T20:21:47.463Z,2.90
2022-10-05T20:24:24.653Z,2.95
2022-10-05T20:26:59.765Z,2.80
2022-10-05T20:29:26.722Z,2.88
2022-10-05T20:31:53.990Z,2.80
2022-10-05T20:34:21.273Z,2.50
2022-10-05T20:36:49.721Z,2.72
2022-10-05T20:39:17.789Z,2.80
2022-10-05T20:41:47.961Z,3.00
2022-10-05T20:44:16.155Z,2.70
2022-10-05T20:46:42.990Z,2.70
2022-10-05T20:49:10.275Z,2.80
2022-10-05T20:51:38.890Z,2.53
2022-10-05T20:54:07.146Z,2.58
2022-10-05T20:56:34.319Z,2.80
2022-10-05T20:59:01.216Z,2.88
2022-10-05T21:01:28.119Z,2.78
2022-10-05T21:03:54.983Z,2.90
2022-10-05T21:06:22.112Z,2.90
2022-10-05T21:08:49.245Z,3.10
2022-10-05T21:11:15.968Z,3.10
2022-10-05T21:13:46.342Z,3.00
2022-10-05T21:16:17.358Z,3.10
2022-10-05T21:18:49.046Z,2.80
2022-10-05T21:21:19.311Z,3.28
2022-10-05T21:23:47.608Z,2.85
2022-10-05T21:26:16.539Z,2.80
2022-10-05T21:28:43.271Z,3.00
2022-10-05T21:31:10.640Z,3.20
2022-10-05T21:33:38.501Z,3.30
2022-10-05T21:36:05.471Z,3.10
2022-10-05T21:38:32.471Z,3.28
2022-10-05T21:40:59.391Z,3.20
2022-10-05T21:43:26.441Z,3.35
2022-10-05T21:45:55.540Z,3.45
2022-10-05T21:48:22.704Z,3.33
2022-10-05T21:50:49.531Z,3.30
2022-10-05T21:53:18.598Z,3.77
2022-10-05T21:55:49.070Z,3.67
2022-10-05T21:58:17.068Z,3.45
2022-10-05T22:00:44.889Z,3.53
2022-10-05T22:03:11.669Z,3.65
2022-10-05T22:05:38.549Z,3.93
2022-10-05T22:08:05.813Z,3.35
2022-10-05T22:10:33.479Z,3.30
2022-10-05T22:13:01.910Z,2.90
2022-10-05T22:15:32.192Z,3.00
2022-10-05T22:17:59.543Z,3.30
2022-10-05T22:20:27.238Z,3.47
2022-10-05T22:22:54.252Z,3.75
2022-10-05T22:25:21.846Z,3.95
2022-10-05T22:27:49.726Z,3.33
2022-10-05T22:30:18.078Z,2.60
2022-10-05T22:32:44.860Z,3.05
2022-10-05T22:35:12.022Z,2.70
2022-10-05T22:37:39.000Z,3.00
2022-10-05T22:40:07.697Z,2.67
2022-10-05T22:42:34.846Z,2.90
2022-10-05T22:45:01.733Z,3.10
2022-10-05T22:47:28.644Z,2.80
2022-10-05T22:49:55.454Z,2.60
2022-10-05T22:52:22.304Z,2.70
2022-10-05T22:54:49.135Z,2.87
2022-10-05T22:57:15.891Z,2.70
2022-10-05T22:59:42.723Z,2.60
2022-10-05T23:02:09.957Z,2.50
2022-10-05T23:04:36.727Z,2.95
2022-10-05T23:07:03.659Z,2.77
2022-10-05T23:09:30.720Z,2.90
2022-10-05T23:11:57.510Z,2.80
2022-10-05T23:14:24.619Z,2.83
2022-10-05T23:16:51.376Z,2.70
2022-10-05T23:19:18.314Z,2.90
2022-10-05T23:21:45.259Z,2.92
2022-10-05T23:24:11.985Z,2.40
2022-10-05T23:26:38.737Z,2.53
2022-10-05T23:29:05.719Z,2.40
2022-10-05T23:31:32.589Z,2.67
2022-10-05T23:33:59.359Z,2.80
2022-10-05T23:36:28.805Z,2.58
2022-10-05T23:38:56.150Z,2.45
2022-10-05T23:41:22.857Z,2.70
2022-10-05T23:43:50.119Z,2.40
2022-10-05T23:46:17.799Z,2.30
2022-10-05T23:48:44.605Z,2.35
2022-10-05T23:51:13.684Z,2.60
2022-10-05T23:53:40.544Z,2.35
2022-10-05T23:56:07.589Z,2.63
2022-10-05T23:58:34.406Z,2.45
